Time;durP1;ratioP1;P1;durP2;ratioP2;P2;SDS_P1;SDS_P2;PMS_P1;PMS_P2;Temp;Humidity;BMP_temperature;BMP_pressure;BME280_temperature;BME280_humidity;BME280_pressure;Samples;Min_cycle;Max_cycle;Signal;HPM_P1;HPM_P2
2022/08/21 00:02:00;;;;;;;2.00;1.90;;;14.40;99.90;;;;;;473907;248;28887;-68
2022/08/21 00:04:01;;;;;;;2.03;1.83;;;14.40;99.90;;;;;;473954;248;29282;-70
2022/08/21 00:06:02;;;;;;;2.03;1.93;;;14.40;99.90;;;;;;473931;248;29245;-66
2022/08/21 00:08:03;;;;;;;1.80;1.70;;;14.40;99.90;;;;;;473885;248;29300;-66
2022/08/21 00:10:05;;;;;;;1.90;1.80;;;14.30;99.90;;;;;;473950;248;29239;-66
2022/08/21 00:12:06;;;;;;;2.00;1.90;;;14.40;99.90;;;;;;473939;248;28497;-68
2022/08/21 00:14:07;;;;;;;2.33;2.13;;;14.40;99.90;;;;;;473982;248;28553;-70
2022/08/21 00:16:08;;;;;;;2.07;1.97;;;14.40;99.90;;;;;;473891;249;28450;-66
2022/08/21 00:18:10;;;;;;;2.20;2.00;;;14.40;99.90;;;;;;473924;248;28852;-68
2022/08/21 00:20:11;;;;;;;3.33;2.27;;;14.40;99.90;;;;;;473927;248;28365;-67
2022/08/21 00:22:12;;;;;;;2.00;1.90;;;14.40;99.90;;;;;;473790;249;28572;-67
2022/08/21 00:24:13;;;;;;;2.30;2.10;;;14.30;99.90;;;;;;473947;248;28805;-69
2022/08/21 00:26:15;;;;;;;2.17;2.00;;;14.30;99.90;;;;;;473880;248;28805;-67
2022/08/21 00:28:16;;;;;;;2.33;2.17;;;14.30;99.90;;;;;;473703;248;28566;-67
2022/08/21 00:30:17;;;;;;;2.20;2.00;;;14.20;99.90;;;;;;470152;249;30125;-67
2022/08/21 00:32:19;;;;;;;2.03;1.83;;;14.20;99.90;;;;;;472980;251;29350;-70
2022/08/21 00:34:20;;;;;;;3.13;2.13;;;14.20;99.90;;;;;;472061;249;29264;-70
2022/08/21 00:36:21;;;;;;;1.93;1.83;;;14.20;99.90;;;;;;472834;249;28477;-67
2022/08/21 00:38:22;;;;;;;1.83;1.73;;;14.20;99.90;;;;;;472152;249;28576;-69
2022/08/21 00:40:24;;;;;;;2.30;2.00;;;14.20;99.90;;;;;;470857;251;28395;-66
2022/08/21 00:42:25;;;;;;;2.10;1.90;;;14.00;99.90;;;;;;473490;249;28866;-68
2022/08/21 00:44:26;;;;;;;2.20;2.00;;;14.00;99.90;;;;;;472111;251;28436;-68
2022/08/21 00:46:27;;;;;;;2.23;2.03;;;13.90;99.90;;;;;;471028;251;28138;-67
2022/08/21 00:48:29;;;;;;;2.47;2.27;;;13.90;99.90;;;;;;472851;251;28407;-67
2022/08/21 00:50:30;;;;;;;1.90;1.80;;;13.80;99.90;;;;;;473468;250;28382;-67
2022/08/21 00:52:31;;;;;;;3.03;2.10;;;13.90;99.90;;;;;;473385;248;28446;-67
2022/08/21 00:54:32;;;;;;;2.20;2.10;;;13.90;99.90;;;;;;472133;249;28585;-68
2022/08/21 00:56:34;;;;;;;2.13;2.00;;;13.90;99.90;;;;;;470413;251;28344;-67
2022/08/21 00:58:35;;;;;;;4.67;2.30;;;13.90;99.90;;;;;;472532;251;28261;-67
2022/08/21 01:00:38;;;;;;;2.47;2.23;;;13.80;99.90;;;;;;472408;251;28722;-70
2022/08/21 01:02:38;;;;;;;2.50;2.30;;;13.80;99.90;;;;;;470740;251;28266;-67
2022/08/21 01:04:39;;;;;;;2.03;1.93;;;13.80;99.90;;;;;;473916;248;29283;-68
2022/08/21 01:06:40;;;;;;;2.80;2.00;;;13.70;99.90;;;;;;473882;248;28833;-67
2022/08/21 01:08:41;;;;;;;2.50;2.30;;;13.80;99.90;;;;;;472301;248;28626;-67
2022/08/21 01:10:43;;;;;;;2.60;2.40;;;13.80;99.90;;;;;;475640;250;28361;-67
2022/08/21 01:12:44;;;;;;;2.30;2.10;;;13.80;99.90;;;;;;475535;249;28544;-66
2022/08/21 01:14:45;;;;;;;2.60;2.40;;;13.70;99.90;;;;;;475618;249;28371;-68
2022/08/21 01:16:46;;;;;;;3.63;2.23;;;13.70;99.90;;;;;;475577;249;28427;-67
2022/08/21 01:18:47;;;;;;;2.17;2.00;;;13.60;99.90;;;;;;475618;249;28614;-68
2022/08/21 01:20:49;;;;;;;3.23;2.30;;;13.60;99.90;;;;;;475654;249;28277;-67
2022/08/21 01:22:50;;;;;;;2.93;2.53;;;13.60;99.90;;;;;;475655;250;28395;-67
2022/08/21 01:24:51;;;;;;;2.10;2.00;;;13.60;99.90;;;;;;475607;249;28384;-69
2022/08/21 01:26:52;;;;;;;2.53;2.13;;;13.50;99.90;;;;;;475574;249;28322;-67
2022/08/21 01:28:54;;;;;;;2.57;2.37;;;13.50;99.90;;;;;;475614;249;28921;-66
2022/08/21 01:30:55;;;;;;;2.17;2.07;;;13.50;99.90;;;;;;475246;249;29757;-66
2022/08/21 01:32:56;;;;;;;3.00;2.17;;;13.50;99.90;;;;;;472988;250;28885;-67
2022/08/21 01:34:57;;;;;;;2.80;2.30;;;13.50;99.90;;;;;;475655;250;29155;-68
2022/08/21 01:36:59;;;;;;;2.10;1.90;;;13.40;99.90;;;;;;475631;250;28410;-67
2022/08/21 01:39:00;;;;;;;2.30;2.17;;;13.40;99.90;;;;;;475710;250;28360;-67
2022/08/21 01:41:01;;;;;;;2.20;2.10;;;13.40;99.90;;;;;;475659;250;28478;-66
2022/08/21 01:43:02;;;;;;;2.40;2.20;;;13.30;99.90;;;;;;475678;249;28561;-67
2022/08/21 01:45:04;;;;;;;2.50;2.13;;;13.40;99.90;;;;;;475567;249;28616;-68
2022/08/21 01:47:05;;;;;;;3.17;2.47;;;13.40;99.90;;;;;;475562;249;28359;-67
2022/08/21 01:49:06;;;;;;;3.87;2.37;;;13.40;99.90;;;;;;475597;249;28446;-68
2022/08/21 01:51:07;;;;;;;2.50;2.30;;;13.40;99.90;;;;;;475658;249;28462;-66
2022/08/21 01:53:09;;;;;;;2.73;2.50;;;13.40;99.90;;;;;;475651;249;28519;-67
2022/08/21 01:55:10;;;;;;;2.20;2.00;;;13.40;99.90;;;;;;475584;250;28908;-70
2022/08/21 01:57:11;;;;;;;2.60;2.30;;;13.30;99.90;;;;;;475579;249;28847;-67
2022/08/21 01:59:14;;;;;;;2.70;2.50;;;;;;;;;;475587;249;28751;-68
2022/08/21 02:01:15;;;;;;;2.40;2.30;;;13.40;99.90;;;;;;475631;249;27093;-67
2022/08/21 02:03:16;;;;;;;2.10;2.00;;;13.40;99.90;;;;;;475665;249;28400;-68
2022/08/21 02:05:18;;;;;;;3.40;2.40;;;13.40;99.90;;;;;;475644;249;28237;-67
2022/08/21 02:07:19;;;;;;;2.83;2.60;;;13.30;99.90;;;;;;475580;249;28825;-67
2022/08/21 02:09:21;;;;;;;2.40;2.30;;;13.30;99.90;;;;;;475594;249;29581;-67
2022/08/21 02:11:21;;;;;;;2.10;2.00;;;13.30;99.90;;;;;;475621;250;28355;-67
2022/08/21 02:13:22;;;;;;;2.60;2.40;;;13.30;99.90;;;;;;475676;249;28330;-68
2022/08/21 02:15:24;;;;;;;3.10;2.40;;;13.20;99.90;;;;;;475612;249;28337;-67
2022/08/21 02:17:25;;;;;;;2.77;2.37;;;13.20;99.90;;;;;;475593;249;28504;-67
2022/08/21 02:19:26;;;;;;;2.40;2.20;;;13.20;99.90;;;;;;475613;249;28470;-68
2022/08/21 02:21:27;;;;;;;3.60;2.50;;;13.20;99.90;;;;;;475646;249;28406;-67
2022/08/21 02:23:29;;;;;;;2.87;2.30;;;13.30;99.90;;;;;;475676;249;28562;-70
2022/08/21 02:25:30;;;;;;;2.77;2.33;;;13.30;99.90;;;;;;475647;249;28506;-67
2022/08/21 02:27:31;;;;;;;3.13;2.83;;;13.30;99.90;;;;;;475412;249;28733;-69
2022/08/21 02:29:32;;;;;;;2.60;2.40;;;13.30;99.90;;;;;;475629;249;29428;-67
2022/08/21 02:31:34;;;;;;;3.50;2.40;;;13.20;99.90;;;;;;475621;249;28808;-67
2022/08/21 02:33:35;;;;;;;2.60;2.40;;;13.10;99.90;;;;;;475676;249;28267;-68
2022/08/21 02:35:36;;;;;;;3.00;2.23;;;13.10;99.90;;;;;;475624;249;28511;-66
2022/08/21 02:37:37;;;;;;;3.03;2.30;;;13.00;99.90;;;;;;475585;249;28341;-67
2022/08/21 02:39:39;;;;;;;3.37;2.57;;;13.00;99.90;;;;;;475661;249;28363;-66
2022/08/21 02:41:40;;;;;;;2.87;2.67;;;13.10;99.90;;;;;;475642;249;28421;-67
2022/08/21 02:43:41;;;;;;;2.60;2.40;;;13.00;99.90;;;;;;475647;249;29004;-69
2022/08/21 02:45:44;;;;;;;2.50;2.30;;;;;;;;;;475623;249;28241;-67
2022/08/21 02:47:45;;;;;;;2.90;2.70;;;12.90;99.90;;;;;;475605;249;26665;-66
2022/08/21 02:49:46;;;;;;;2.97;2.67;;;12.90;99.90;;;;;;475676;249;28228;-67
2022/08/21 02:51:47;;;;;;;2.60;2.20;;;12.90;99.90;;;;;;475622;249;28470;-68
2022/08/21 02:53:49;;;;;;;3.63;2.30;;;12.90;99.90;;;;;;475667;249;28232;-66
2022/08/21 02:55:51;;;;;;;2.87;2.57;;;;;;;;;;475581;249;28368;-71
2022/08/21 02:57:52;;;;;;;2.40;2.20;;;12.90;99.90;;;;;;475615;249;27117;-67
2022/08/21 02:59:54;;;;;;;2.90;2.70;;;12.90;99.90;;;;;;475662;249;28262;-68
2022/08/21 03:01:55;;;;;;;2.47;2.27;;;12.90;99.90;;;;;;475667;249;28354;-67
2022/08/21 03:03:56;;;;;;;2.90;2.70;;;12.80;99.90;;;;;;475675;249;28404;-68
2022/08/21 03:05:57;;;;;;;3.40;2.70;;;12.90;99.90;;;;;;475637;249;28252;-67
2022/08/21 03:07:59;;;;;;;3.37;2.73;;;12.90;99.90;;;;;;475617;244;28234;-66
2022/08/21 03:10:00;;;;;;;2.70;2.50;;;12.90;99.90;;;;;;475659;249;28910;-68
2022/08/21 03:12:01;;;;;;;2.90;2.63;;;12.80;99.90;;;;;;475655;249;28939;-66
2022/08/21 03:14:02;;;;;;;2.70;2.50;;;12.80;99.90;;;;;;475634;249;28244;-67
2022/08/21 03:16:04;;;;;;;2.70;2.50;;;12.80;99.90;;;;;;475561;249;29685;-68
2022/08/21 03:18:05;;;;;;;2.80;2.60;;;12.80;99.90;;;;;;475670;249;28694;-67
2022/08/21 03:20:06;;;;;;;3.03;2.70;;;12.70;99.90;;;;;;475679;249;29462;-68
2022/08/21 03:22:07;;;;;;;2.83;2.60;;;12.70;99.90;;;;;;475477;248;28582;-67
2022/08/21 03:24:09;;;;;;;3.13;2.80;;;12.60;99.90;;;;;;475655;249;28142;-67
2022/08/21 03:26:11;;;;;;;3.97;2.93;;;12.60;99.90;;;;;;475519;249;28254;-66
2022/08/21 03:28:11;;;;;;;3.47;2.87;;;12.60;99.90;;;;;;475600;249;28351;-67
2022/08/21 03:30:12;;;;;;;3.00;2.70;;;12.60;99.90;;;;;;475654;249;28316;-71
2022/08/21 03:32:14;;;;;;;2.97;2.77;;;12.70;99.90;;;;;;475535;249;28363;-66
2022/08/21 03:34:15;;;;;;;3.40;2.50;;;12.70;99.90;;;;;;475633;249;28913;-67
2022/08/21 03:36:16;;;;;;;3.90;2.50;;;12.60;99.90;;;;;;475542;249;28346;-67
2022/08/21 03:38:19;;;;;;;2.77;2.57;;;12.60;99.90;;;;;;475670;249;28446;-67
2022/08/21 03:40:20;;;;;;;2.40;2.30;;;12.60;99.90;;;;;;475502;250;29318;-67
2022/08/21 03:42:20;;;;;;;3.20;2.77;;;12.60;99.90;;;;;;475514;249;28877;-66
2022/08/21 03:44:21;;;;;;;4.27;2.80;;;12.60;99.90;;;;;;475567;249;28747;-68
2022/08/21 03:46:22;;;;;;;3.30;2.60;;;12.60;99.90;;;;;;475485;249;28697;-68
2022/08/21 03:48:24;;;;;;;4.40;2.60;;;12.50;99.90;;;;;;475475;249;28879;-66
2022/08/21 03:50:25;;;;;;;3.30;2.93;;;12.40;99.90;;;;;;475652;249;28124;-69
2022/08/21 03:52:27;;;;;;;2.80;2.60;;;;;;;;;;475623;249;28242;-68
2022/08/21 03:54:28;;;;;;;3.53;2.60;;;12.40;99.90;;;;;;475657;249;27398;-67
2022/08/21 03:56:30;;;;;;;2.90;2.70;;;12.30;99.90;;;;;;475609;249;29489;-67
2022/08/21 03:58:31;;;;;;;3.87;2.60;;;12.30;99.90;;;;;;475606;249;28912;-70
2022/08/21 04:00:32;;;;;;;2.90;2.70;;;12.20;99.90;;;;;;475652;249;28961;-67
2022/08/21 04:02:34;;;;;;;3.60;3.30;;;12.30;99.90;;;;;;475626;249;28341;-67
2022/08/21 04:04:35;;;;;;;2.80;2.60;;;12.20;99.90;;;;;;475619;249;28938;-67
2022/08/21 04:06:36;;;;;;;4.00;2.77;;;12.20;99.90;;;;;;475544;249;28570;-67
2022/08/21 04:08:37;;;;;;;3.03;2.70;;;12.30;99.90;;;;;;475612;249;28241;-68
2022/08/21 04:10:39;;;;;;;3.47;3.17;;;12.30;99.90;;;;;;475665;249;28714;-67
2022/08/21 04:12:40;;;;;;;2.80;2.60;;;12.30;99.90;;;;;;475586;249;28722;-67
2022/08/21 04:14:41;;;;;;;3.33;3.00;;;12.30;99.90;;;;;;475625;249;28448;-67
2022/08/21 04:16:42;;;;;;;3.13;2.83;;;12.30;99.90;;;;;;475563;249;29041;-67
2022/08/21 04:18:44;;;;;;;3.07;2.87;;;12.30;99.90;;;;;;475602;249;28709;-69
2022/08/21 04:20:45;;;;;;;3.10;2.80;;;12.20;99.90;;;;;;475637;249;28576;-66
2022/08/21 04:22:46;;;;;;;3.70;3.40;;;12.10;99.90;;;;;;475593;249;28604;-68
2022/08/21 04:24:47;;;;;;;3.77;3.43;;;12.00;99.90;;;;;;475591;249;28142;-66
2022/08/21 04:26:49;;;;;;;3.00;2.80;;;12.00;99.90;;;;;;475601;249;28960;-70
2022/08/21 04:28:50;;;;;;;4.97;3.03;;;11.90;99.90;;;;;;475422;249;28757;-70
2022/08/21 04:30:51;;;;;;;2.77;2.57;;;11.90;99.90;;;;;;474650;249;28192;-66
2022/08/21 04:32:52;;;;;;;3.40;3.10;;;12.00;99.90;;;;;;475475;250;28488;-68
2022/08/21 04:34:54;;;;;;;3.50;2.80;;;12.00;99.90;;;;;;475658;250;28649;-66
2022/08/21 04:36:55;;;;;;;3.00;2.70;;;12.00;99.90;;;;;;476562;246;28555;-66
2022/08/21 04:38:56;;;;;;;3.20;2.70;;;12.00;99.90;;;;;;475799;246;28429;-69
2022/08/21 04:40:57;;;;;;;3.40;2.97;;;12.00;99.90;;;;;;479503;246;28970;-66
2022/08/21 04:42:59;;;;;;;2.87;2.50;;;12.00;99.90;;;;;;476311;249;28867;-67
2022/08/21 04:45:00;;;;;;;2.87;2.60;;;12.00;99.90;;;;;;475599;249;29942;-66
2022/08/21 04:47:01;;;;;;;4.43;3.03;;;12.00;99.90;;;;;;475606;249;28666;-67
2022/08/21 04:49:02;;;;;;;3.90;2.63;;;12.00;99.90;;;;;;475622;249;28491;-69
2022/08/21 04:51:04;;;;;;;4.40;2.80;;;12.00;99.90;;;;;;475663;249;28363;-67
2022/08/21 04:53:05;;;;;;;3.63;2.70;;;12.10;99.90;;;;;;475647;249;28394;-68
2022/08/21 04:55:08;;;;;;;2.73;2.53;;;12.20;99.90;;;;;;475600;249;28331;-67
2022/08/21 04:57:08;;;;;;;2.53;2.37;;;12.20;99.90;;;;;;475512;249;28583;-67
2022/08/21 04:59:10;;;;;;;3.00;2.80;;;12.20;99.90;;;;;;475606;249;28584;-68
2022/08/21 05:01:11;;;;;;;2.90;2.70;;;12.30;99.90;;;;;;475621;249;28616;-67
2022/08/21 05:03:11;;;;;;;2.87;2.67;;;12.40;99.90;;;;;;475518;249;28555;-69
2022/08/21 05:05:12;;;;;;;2.97;2.77;;;12.30;99.90;;;;;;475457;249;28704;-67
2022/08/21 05:07:14;;;;;;;4.53;2.90;;;12.40;99.90;;;;;;475896;246;28921;-68
2022/08/21 05:09:15;;;;;;;3.00;2.80;;;12.30;99.90;;;;;;476959;246;29363;-70
2022/08/21 05:11:16;;;;;;;3.30;3.00;;;12.40;99.90;;;;;;475604;250;28635;-67
2022/08/21 05:13:17;;;;;;;2.97;2.77;;;12.40;99.90;;;;;;475573;250;28358;-68
2022/08/21 05:15:19;;;;;;;3.97;3.07;;;12.40;99.90;;;;;;475542;249;28755;-67
2022/08/21 05:17:21;;;;;;;2.93;2.73;;;12.40;99.90;;;;;;475585;249;28411;-68
2022/08/21 05:19:21;;;;;;;4.57;3.00;;;12.50;99.90;;;;;;475620;249;28473;-68
2022/08/21 05:21:22;;;;;;;3.40;3.10;;;12.40;99.90;;;;;;475634;249;28316;-67
2022/08/21 05:23:24;;;;;;;3.57;3.27;;;12.40;99.90;;;;;;475664;249;28378;-67
2022/08/21 05:25:25;;;;;;;3.13;2.93;;;12.50;99.90;;;;;;474981;250;29373;-69
2022/08/21 05:27:29;;;;;;;4.23;3.17;;;12.50;99.90;;;;;;475575;249;28758;-67
2022/08/21 05:29:31;;;;;;;3.10;2.90;;;12.50;99.90;;;;;;475460;250;29123;-68
2022/08/21 05:31:29;;;;;;;3.20;2.90;;;12.60;99.90;;;;;;475414;250;28660;-66
2022/08/21 05:33:31;;;;;;;3.60;3.33;;;;;;;;;;475643;249;28243;-67
2022/08/21 05:35:32;;;;;;;3.60;3.30;;;12.60;99.90;;;;;;475582;249;26629;-66
2022/08/21 05:37:34;;;;;;;3.47;3.00;;;12.70;99.90;;;;;;475436;249;28367;-68
2022/08/21 05:39:35;;;;;;;4.33;3.10;;;12.70;99.90;;;;;;475481;246;28780;-67
2022/08/21 05:41:36;;;;;;;3.73;3.37;;;12.70;99.90;;;;;;475462;250;28710;-68
2022/08/21 05:43:39;;;;;;;3.13;2.90;;;;;;;;;;479236;246;28951;-66
2022/08/21 05:45:41;;;;;;;3.33;3.13;;;;;;;;;;475638;250;27017;-66
2022/08/21 05:47:42;;;;;;;2.97;2.77;;;12.70;99.90;;;;;;477004;249;26672;-67
2022/08/21 05:49:44;;;;;;;3.20;2.90;;;12.80;99.90;;;;;;477186;249;28316;-67
2022/08/21 05:51:46;;;;;;;3.00;2.80;;;;;;;;;;477154;249;28211;-68
2022/08/21 05:53:47;;;;;;;2.83;2.60;;;12.90;99.90;;;;;;477188;249;26577;-67
2022/08/21 05:55:48;;;;;;;3.20;2.90;;;13.00;99.90;;;;;;477126;248;28654;-69
2022/08/21 05:57:50;;;;;;;3.50;2.70;;;13.00;99.90;;;;;;477100;249;28967;-66
2022/08/21 05:59:51;;;;;;;3.20;2.90;;;13.10;99.90;;;;;;477181;249;29541;-67
2022/08/21 06:01:52;;;;;;;3.60;2.93;;;13.20;99.90;;;;;;476841;246;28260;-68
2022/08/21 06:03:53;;;;;;;3.20;2.90;;;13.30;99.90;;;;;;475672;250;28197;-66
2022/08/21 06:05:55;;;;;;;3.03;2.80;;;13.40;99.90;;;;;;479912;246;28391;-67
2022/08/21 06:07:56;;;;;;;3.10;2.80;;;13.50;99.90;;;;;;482578;246;28309;-67
2022/08/21 06:09:59;;;;;;;3.10;2.90;;;;;;;;;;476659;246;28365;-68
2022/08/21 06:12:00;;;;;;;3.10;2.90;;;13.60;99.90;;;;;;476462;246;27873;-67
2022/08/21 06:14:01;;;;;;;2.97;2.77;;;13.70;99.90;;;;;;475691;250;28372;-68
2022/08/21 06:16:02;;;;;;;3.90;2.80;;;13.80;99.90;;;;;;480341;246;28439;-67
2022/08/21 06:18:03;;;;;;;2.83;2.63;;;13.80;99.90;;;;;;482676;246;28369;-68
2022/08/21 06:20:05;;;;;;;2.90;2.70;;;13.90;99.90;;;;;;482808;246;28447;-69
2022/08/21 06:22:06;;;;;;;2.93;2.73;;;13.90;99.90;;;;;;482770;246;28513;-67
2022/08/21 06:24:08;;;;;;;2.80;2.60;;;;;;;;;;482808;246;28491;-75
2022/08/21 06:26:10;;;;;;;2.70;2.50;;;14.10;99.90;;;;;;477412;246;26614;-67
2022/08/21 06:28:12;;;;;;;2.50;2.30;;;14.20;99.90;;;;;;475374;250;28516;-70
2022/08/21 06:30:12;;;;;;;2.90;2.67;;;14.30;99.90;;;;;;475364;250;28351;-67
2022/08/21 06:32:15;;;;;;;2.90;2.70;;;14.40;99.90;;;;;;475387;250;28299;-68
2022/08/21 06:34:17;;;;;;;2.70;2.50;;;14.50;99.90;;;;;;475440;250;28856;-71
2022/08/21 06:36:18;;;;;;;3.07;2.77;;;14.60;99.90;;;;;;475214;250;28774;-67
2022/08/21 06:38:20;;;;;;;3.33;3.03;;;14.70;99.90;;;;;;475107;250;29297;-67
2022/08/21 06:40:21;;;;;;;2.63;2.43;;;14.80;99.90;;;;;;475401;250;28815;-68
2022/08/21 06:42:23;;;;;;;2.57;2.37;;;14.90;99.90;;;;;;475423;250;28770;-67
2022/08/21 06:44:24;;;;;;;2.73;2.53;;;15.00;99.90;;;;;;475411;250;28932;-67
2022/08/21 06:46:25;;;;;;;3.43;2.67;;;15.00;99.90;;;;;;476123;246;29650;-71
2022/08/21 06:48:26;;;;;;;3.90;2.60;;;15.10;99.90;;;;;;480286;246;29272;-67
2022/08/21 06:50:28;;;;;;;2.70;2.50;;;15.20;99.90;;;;;;480844;246;28979;-69
2022/08/21 06:52:29;;;;;;;4.03;2.70;;;15.30;99.90;;;;;;477625;249;28848;-67
2022/08/21 06:54:30;;;;;;;2.40;2.20;;;15.40;99.90;;;;;;477612;249;28792;-67
2022/08/21 06:56:33;;;;;;;2.90;2.60;;;15.50;99.90;;;;;;475938;249;28921;-69
2022/08/21 06:58:33;;;;;;;3.03;2.83;;;15.60;99.90;;;;;;475745;249;28855;-68
2022/08/21 07:00:34;;;;;;;2.87;2.60;;;15.70;99.90;;;;;;476014;249;28935;-69
2022/08/21 07:02:36;;;;;;;2.70;2.50;;;15.80;99.90;;;;;;476292;249;28768;-68
2022/08/21 07:04:36;;;;;;;3.00;2.80;;;15.90;99.90;;;;;;475703;250;28875;-68
2022/08/21 07:06:38;;;;;;;2.70;2.50;;;16.00;99.90;;;;;;479928;246;28900;-69
2022/08/21 07:08:39;;;;;;;2.23;2.10;;;16.00;99.90;;;;;;475482;246;28966;-68
2022/08/21 07:10:40;;;;;;;2.80;2.60;;;16.10;99.90;;;;;;475693;250;28908;-68
2022/08/21 07:12:41;;;;;;;3.10;2.80;;;16.40;99.90;;;;;;475654;250;28919;-67
2022/08/21 07:14:43;;;;;;;4.00;2.83;;;16.50;99.90;;;;;;475625;250;29361;-68
2022/08/21 07:16:44;;;;;;;3.00;2.57;;;16.60;99.90;;;;;;475620;250;28917;-70
2022/08/21 07:18:45;;;;;;;2.83;2.60;;;16.70;99.90;;;;;;475674;250;28922;-68
2022/08/21 07:20:47;;;;;;;2.53;2.33;;;16.90;99.90;;;;;;475566;250;29346;-67
2022/08/21 07:22:48;;;;;;;2.40;2.30;;;17.00;99.90;;;;;;475690;250;29523;-69
2022/08/21 07:24:49;;;;;;;2.97;2.77;;;17.00;99.90;;;;;;475666;250;29337;-67
2022/08/21 07:26:50;;;;;;;2.90;2.70;;;17.00;99.90;;;;;;475613;250;28897;-69
2022/08/21 07:28:52;;;;;;;2.60;2.40;;;17.00;99.90;;;;;;475605;250;29524;-68
2022/08/21 07:30:53;;;;;;;2.70;2.50;;;17.10;99.90;;;;;;475673;250;29395;-68
2022/08/21 07:32:54;;;;;;;2.80;2.60;;;17.20;99.90;;;;;;472020;246;28924;-71
2022/08/21 07:34:55;;;;;;;2.70;2.50;;;17.30;99.90;;;;;;475607;250;28981;-67
2022/08/21 07:36:57;;;;;;;2.83;2.63;;;17.40;99.90;;;;;;480367;232;28876;-70
2022/08/21 07:38:58;;;;;;;2.90;2.60;;;17.40;99.90;;;;;;481092;245;28768;-68
2022/08/21 07:40:59;;;;;;;4.00;2.30;;;17.60;99.90;;;;;;476341;248;28917;-68
2022/08/21 07:43:00;;;;;;;4.60;2.60;;;17.70;99.90;;;;;;473153;243;28815;-72
2022/08/21 07:45:02;;;;;;;2.60;2.40;;;17.80;99.90;;;;;;480060;247;28819;-67
2022/08/21 07:47:03;;;;;;;3.03;2.60;;;17.90;99.90;;;;;;474955;241;28907;-67
2022/08/21 07:49:04;;;;;;;2.80;2.60;;;17.90;99.90;;;;;;472067;251;29321;-67
2022/08/21 07:51:05;;;;;;;2.77;2.57;;;18.00;99.90;;;;;;472443;251;29251;-68
2022/08/21 07:53:07;;;;;;;2.90;2.70;;;18.00;99.90;;;;;;472461;251;29374;-71
2022/08/21 07:55:08;;;;;;;3.03;2.73;;;18.10;99.90;;;;;;472886;250;29236;-68
2022/08/21 07:57:09;;;;;;;4.63;2.90;;;18.10;99.90;;;;;;465750;237;29053;-68
2022/08/21 07:59:10;;;;;;;3.00;2.73;;;18.10;99.90;;;;;;461442;257;28938;-67
2022/08/21 08:01:12;;;;;;;3.63;3.00;;;18.10;99.90;;;;;;461481;257;28824;-69
2022/08/21 08:03:13;;;;;;;2.80;2.60;;;18.10;99.90;;;;;;461474;257;28854;-71
2022/08/21 08:05:14;;;;;;;3.17;2.50;;;18.30;99.90;;;;;;461457;257;28942;-67
2022/08/21 08:07:15;;;;;;;3.73;2.83;;;18.50;99.90;;;;;;461336;257;28858;-67
2022/08/21 08:09:17;;;;;;;2.37;2.23;;;18.50;99.90;;;;;;461473;257;28866;-67
2022/08/21 08:11:18;;;;;;;5.77;2.83;;;18.60;99.90;;;;;;461280;257;28945;-67
2022/08/21 08:13:19;;;;;;;3.63;2.80;;;18.80;99.90;;;;;;460423;253;29035;-71
2022/08/21 08:15:20;;;;;;;3.63;2.40;;;19.00;99.90;;;;;;461339;256;30054;-67
2022/08/21 08:17:23;;;;;;;3.30;2.50;;;19.00;99.90;;;;;;469845;241;29124;-67
2022/08/21 08:19:23;;;;;;;4.00;2.80;;;19.10;99.90;;;;;;472997;249;28889;-67
2022/08/21 08:21:24;;;;;;;3.50;2.83;;;19.10;99.90;;;;;;469450;252;28797;-67
2022/08/21 08:23:27;;;;;;;2.97;2.40;;;19.10;99.90;;;;;;469349;253;28840;-71
2022/08/21 08:25:27;;;;;;;3.00;2.77;;;19.10;99.90;;;;;;469375;252;28772;-67
2022/08/21 08:27:28;;;;;;;4.90;3.17;;;19.10;99.90;;;;;;478818;233;28873;-69
2022/08/21 08:29:30;;;;;;;3.63;2.80;;;19.10;99.90;;;;;;477451;249;28794;-67
2022/08/21 08:31:30;;;;;;;5.20;2.80;;;19.10;99.90;;;;;;470555;253;29364;-68
2022/08/21 08:33:32;;;;;;;4.33;2.60;;;19.10;99.90;;;;;;469063;253;29404;-68
2022/08/21 08:35:33;;;;;;;3.47;2.53;;;19.20;99.90;;;;;;469163;253;29406;-67
2022/08/21 08:37:37;;;;;;;4.47;3.00;;;19.20;99.90;;;;;;469122;253;28860;-68
2022/08/21 08:39:35;;;;;;;3.00;2.57;;;19.50;99.90;;;;;;468943;253;28950;-67
2022/08/21 08:41:37;;;;;;;3.47;2.70;;;19.40;99.90;;;;;;469176;253;28940;-67
2022/08/21 08:43:38;;;;;;;3.93;2.53;;;19.40;99.90;;;;;;469203;253;28859;-70
2022/08/21 08:45:39;;;;;;;2.53;2.33;;;19.60;99.90;;;;;;469100;253;28903;-67
2022/08/21 08:47:41;;;;;;;2.40;2.20;;;19.60;99.90;;;;;;469130;253;28855;-68
2022/08/21 08:49:42;;;;;;;7.60;2.83;;;19.60;99.90;;;;;;469197;253;28806;-67
2022/08/21 08:51:43;;;;;;;2.50;2.30;;;19.70;99.90;;;;;;469148;253;28904;-67
2022/08/21 08:53:44;;;;;;;2.57;2.37;;;19.70;99.90;;;;;;469011;253;28875;-72
2022/08/21 08:55:46;;;;;;;3.73;2.70;;;19.60;99.90;;;;;;469020;253;28870;-68
2022/08/21 08:57:47;;;;;;;5.00;3.07;;;19.90;99.90;;;;;;468977;253;28880;-67
2022/08/21 08:59:48;;;;;;;3.40;2.63;;;20.10;99.90;;;;;;469196;253;28843;-67
2022/08/21 09:01:51;;;;;;;4.13;2.50;;;20.10;99.90;;;;;;469091;253;29343;-67
2022/08/21 09:03:51;;;;;;;3.87;3.10;;;20.00;99.90;;;;;;469121;253;29425;-71
2022/08/21 09:05:52;;;;;;;5.10;2.57;;;20.10;99.90;;;;;;469126;253;29280;-67
2022/08/21 09:07:53;;;;;;;3.50;2.70;;;20.20;99.90;;;;;;469083;253;29365;-69
2022/08/21 09:09:54;;;;;;;3.97;2.77;;;20.30;99.90;;;;;;469154;253;28804;-67
2022/08/21 09:11:56;;;;;;;6.07;3.00;;;20.60;99.90;;;;;;469186;253;28821;-68
2022/08/21 09:13:57;;;;;;;3.80;3.20;;;20.50;99.90;;;;;;469113;253;28990;-70
2022/08/21 09:15:58;;;;;;;3.83;3.30;;;20.40;99.90;;;;;;469195;253;28889;-68
2022/08/21 09:17:59;;;;;;;4.63;3.03;;;20.50;99.90;;;;;;469107;253;28868;-68
2022/08/21 09:20:01;;;;;;;7.20;3.30;;;20.50;99.90;;;;;;469171;253;28832;-68
2022/08/21 09:22:02;;;;;;;5.50;3.33;;;20.50;99.90;;;;;;469210;253;28885;-67
2022/08/21 09:24:04;;;;;;;5.10;3.33;;;20.70;99.90;;;;;;469149;253;28891;-70
2022/08/21 09:26:04;;;;;;;4.37;2.83;;;20.80;99.90;;;;;;469082;253;29826;-68
2022/08/21 09:28:06;;;;;;;3.77;2.80;;;20.90;99.90;;;;;;469198;253;29328;-68
2022/08/21 09:30:07;;;;;;;6.20;2.90;;;20.90;99.90;;;;;;469144;253;30174;-68
2022/08/21 09:32:08;;;;;;;5.53;3.40;;;21.10;99.90;;;;;;469094;253;29381;-69
2022/08/21 09:34:09;;;;;;;4.43;3.20;;;21.20;99.90;;;;;;469161;253;28975;-71
2022/08/21 09:36:11;;;;;;;2.93;2.37;;;21.20;99.90;;;;;;469119;253;28820;-67
2022/08/21 09:38:13;;;;;;;4.40;2.90;;;21.40;99.90;;;;;;469137;253;28926;-68
2022/08/21 09:40:13;;;;;;;4.27;2.57;;;21.40;99.90;;;;;;469084;253;28859;-67
2022/08/21 09:42:14;;;;;;;6.57;3.00;;;21.40;99.90;;;;;;469182;253;28918;-67
2022/08/21 09:44:16;;;;;;;2.90;2.60;;;21.60;99.90;;;;;;469156;253;28864;-69
2022/08/21 09:46:17;;;;;;;3.20;2.47;;;21.80;99.90;;;;;;469071;253;28938;-68
2022/08/21 09:48:18;;;;;;;3.37;2.70;;;21.70;99.90;;;;;;469178;253;28846;-67
2022/08/21 09:50:19;;;;;;;6.67;3.20;;;21.80;99.90;;;;;;469127;253;29932;-72
2022/08/21 09:52:21;;;;;;;3.57;2.50;;;21.80;99.90;;;;;;469130;253;29360;-67
2022/08/21 09:54:22;;;;;;;4.83;2.70;;;21.70;99.90;;;;;;469165;253;29416;-69
2022/08/21 09:58:43;;;;;;;3.33;2.47;;;21.20;99.90;;;;;;469168;253;28936;-67
2022/08/21 10:00:44;;;;;;;2.67;2.47;;;21.10;99.90;;;;;;469152;253;28878;-71
2022/08/21 10:02:45;;;;;;;4.53;2.70;;;21.20;99.90;;;;;;469124;253;28928;-68
2022/08/21 10:04:47;;;;;;;4.37;2.53;;;21.40;99.90;;;;;;469132;253;28938;-68
2022/08/21 10:06:47;;;;;;;4.90;2.50;;;21.40;99.90;;;;;;469105;253;28823;-68
2022/08/21 10:08:49;;;;;;;5.30;2.80;;;21.50;99.90;;;;;;469106;253;29362;-68
2022/08/21 10:10:50;;;;;;;3.07;2.27;;;21.50;99.90;;;;;;469178;253;29375;-71
2022/08/21 10:12:51;;;;;;;3.77;2.57;;;21.60;99.90;;;;;;469176;253;29361;-67
2022/08/21 10:14:52;;;;;;;7.67;3.37;;;21.70;99.90;;;;;;469204;253;29349;-68
2022/08/21 10:16:54;;;;;;;7.43;2.97;;;21.80;99.90;;;;;;469084;253;28932;-69
2022/08/21 10:18:55;;;;;;;4.17;2.90;;;21.80;99.90;;;;;;469152;253;29370;-69
2022/08/21 10:20:56;;;;;;;3.40;3.00;;;21.70;99.90;;;;;;469180;253;29674;-70
2022/08/21 10:22:58;;;;;;;3.53;2.40;;;21.80;99.90;;;;;;469355;249;29294;-69
2022/08/21 10:24:59;;;;;;;4.00;2.80;;;21.70;99.90;;;;;;470397;253;28960;-67
2022/08/21 10:27:00;;;;;;;2.70;2.43;;;21.80;99.90;;;;;;457259;259;29830;-68
2022/08/21 10:29:01;;;;;;;3.60;2.40;;;21.80;99.90;;;;;;470339;252;29311;-68
2022/08/21 10:31:03;;;;;;;2.53;2.33;;;21.80;99.90;;;;;;457319;259;29473;-68
2022/08/21 10:33:04;;;;;;;3.70;2.63;;;21.70;99.90;;;;;;470324;252;29277;-67
2022/08/21 10:35:06;;;;;;;2.67;2.43;;;21.70;99.90;;;;;;470321;253;28919;-68
2022/08/21 10:37:06;;;;;;;5.03;2.63;;;21.70;99.90;;;;;;457219;259;28983;-68